Terminal Aerodrome Forecast
Issued by NWS

Home | Current Version | Previous Version | Text Only | Print | Product List | Glossary On
Versions: 1 2 3 4 5 6 7 8 9 10 11 12 13 14 15 16
832
FTUS41 KBTV 281129
TAFMSS
TAF
KMSS 281129Z 2812/2912 VRB03KT P6SM VCSH BKN050
      TEMPO 2812/2814 3SM -SHRA BR BKN025
     FM281400 22007KT P6SM SCT050
     FM281900 24007KT P6SM VCSH BKN050
      TEMPO 2822/2902 3SM -SHRA BR BKN030
     FM290300 23007KT P6SM SCT030=

USA.gov is the U.S. government's official web portal to all federal, state and local government web resources and services.